sensor_id;sensor_type;location;lat;lon;timestamp;pressure;altitude;pressure_sealevel;temperature;humidity
57442;BME280;43284;47.042;15.498;2023-02-28T00:00:32;98015.19;;;-1.56;68.45
57442;BME280;43284;47.042;15.498;2023-02-28T00:02:58;98015.25;;;-1.53;68.48
57442;BME280;43284;47.042;15.498;2023-02-28T00:05:26;98022.91;;;-1.56;68.78
57442;BME280;43284;47.042;15.498;2023-02-28T00:07:52;98023.75;;;-1.55;68.64
57442;BME280;43284;47.042;15.498;2023-02-28T00:10:27;98018.63;;;-1.57;68.89
57442;BME280;43284;47.042;15.498;2023-02-28T00:12:54;98020.34;;;-1.56;69.14
57442;BME280;43284;47.042;15.498;2023-02-28T00:15:23;98018.63;;;-1.57;69.57
57442;BME280;43284;47.042;15.498;2023-02-28T00:17:49;98020.34;;;-1.54;69.80
57442;BME280;43284;47.042;15.498;2023-02-28T00:20:18;98022.06;;;-1.55;69.78
57442;BME280;43284;47.042;15.498;2023-02-28T00:22:47;98022.91;;;-1.56;70.02
57442;BME280;43284;47.042;15.498;2023-02-28T00:25:16;98014.34;;;-1.56;70.63
57442;BME280;43284;47.042;15.498;2023-02-28T00:27:42;98022.03;;;-1.56;71.14
57442;BME280;43284;47.042;15.498;2023-02-28T00:30:11;98024.63;;;-1.55;71.53
57442;BME280;43284;47.042;15.498;2023-02-28T00:32:37;98028.97;;;-1.51;72.81
57442;BME280;43284;47.042;15.498;2023-02-28T00:35:03;98026.41;;;-1.49;71.93
57442;BME280;43284;47.042;15.498;2023-02-28T00:37:30;98024.72;;;-1.47;72.86
57442;BME280;43284;47.042;15.498;2023-02-28T00:39:56;98028.06;;;-1.53;71.45
57442;BME280;43284;47.042;15.498;2023-02-28T00:42:22;98024.63;;;-1.55;71.67
57442;BME280;43284;47.042;15.498;2023-02-28T00:44:48;98028.88;;;-1.57;71.96
57442;BME280;43284;47.042;15.498;2023-02-28T00:47:14;98022.84;;;-1.60;71.65
57442;BME280;43284;47.042;15.498;2023-02-28T00:49:39;98028.84;;;-1.58;71.35
57442;BME280;43284;47.042;15.498;2023-02-28T00:52:05;98022.91;;;-1.57;71.31
57442;BME280;43284;47.042;15.498;2023-02-28T00:54:31;98026.31;;;-1.57;70.73
57442;BME280;43284;47.042;15.498;2023-02-28T00:56:57;98022.91;;;-1.56;71.16
57442;BME280;43284;47.042;15.498;2023-02-28T00:59:22;98019.53;;;-1.52;72.22
57442;BME280;43284;47.042;15.498;2023-02-28T01:01:48;98027.28;;;-1.47;73.18
57442;BME280;43284;47.042;15.498;2023-02-28T01:04:14;98029.03;;;-1.46;73.16
57442;BME280;43284;47.042;15.498;2023-02-28T01:06:40;98029.84;;;-1.47;72.94
57442;BME280;43284;47.042;15.498;2023-02-28T01:09:06;98029.03;;;-1.46;72.32
57442;BME280;43284;47.042;15.498;2023-02-28T01:11:33;98029.00;;;-1.48;72.31
57442;BME280;43284;47.042;15.498;2023-02-28T01:14:00;98025.53;;;-1.50;73.08
57442;BME280;43284;47.042;15.498;2023-02-28T01:16:27;98026.41;;;-1.49;73.67
57442;BME280;43284;47.042;15.498;2023-02-28T01:18:53;98029.03;;;-1.46;73.54
57442;BME280;43284;47.042;15.498;2023-02-28T01:21:23;98025.56;;;-1.48;72.05
57442;BME280;43284;47.042;15.498;2023-02-28T01:23:49;98017.13;;;-1.39;70.03
57442;BME280;43284;47.042;15.498;2023-02-28T01:26:20;98024.81;;;-1.39;69.22
57442;BME280;43284;47.042;15.498;2023-02-28T01:28:47;98021.34;;;-1.43;70.15
57442;BME280;43284;47.042;15.498;2023-02-28T01:31:13;98024.78;;;-1.44;70.43
57442;BME280;43284;47.042;15.498;2023-02-28T01:33:39;98029.03;;;-1.43;71.52
57442;BME280;43284;47.042;15.498;2023-02-28T01:36:14;98025.66;;;-1.40;71.53
57442;BME280;43284;47.042;15.498;2023-02-28T01:38:40;98019.69;;;-1.39;71.06
57442;BME280;43284;47.042;15.498;2023-02-28T01:41:07;98018.84;;;-1.40;70.86
57442;BME280;43284;47.042;15.498;2023-02-28T01:43:59;98022.25;;;-1.41;70.66
57442;BME280;43284;47.042;15.498;2023-02-28T01:46:29;98024.00;;;-1.37;71.47
57442;BME280;43284;47.042;15.498;2023-02-28T01:49:27;98020.59;;;-1.34;70.54
57442;BME280;43284;47.042;15.498;2023-02-28T01:51:55;98023.16;;;-1.34;70.39
57442;BME280;43284;47.042;15.498;2023-02-28T01:54:30;98024.03;;;-1.34;70.08
57442;BME280;43284;47.042;15.498;2023-02-28T01:57:09;98023.22;;;-1.30;70.99
57442;BME280;43284;47.042;15.498;2023-02-28T01:59:42;98028.34;;;-1.31;70.33
57442;BME280;43284;47.042;15.498;2023-02-28T02:02:12;98024.94;;;-1.30;70.21
57442;BME280;43284;47.042;15.498;2023-02-28T02:04:43;98026.66;;;-1.31;68.72
57442;BME280;43284;47.042;15.498;2023-02-28T02:07:12;98021.53;;;-1.31;68.50
57442;BME280;43284;47.042;15.498;2023-02-28T02:09:39;98017.16;;;-1.36;70.27
57442;BME280;43284;47.042;15.498;2023-02-28T02:12:24;98014.50;;;-1.46;71.36
57442;BME280;43284;47.042;15.498;2023-02-28T02:15:24;98025.66;;;-1.42;71.08
57442;BME280;43284;47.042;15.498;2023-02-28T02:17:48;98024.81;;;-1.39;71.85
57442;BME280;43284;47.042;15.498;2023-02-28T02:26:21;98025.59;;;-1.45;71.90
57442;BME280;43284;47.042;15.498;2023-02-28T02:34:56;98018.72;;;-1.48;70.50
57442;BME280;43284;47.042;15.498;2023-02-28T02:40:25;98017.06;;;-1.46;70.92
57442;BME280;43284;47.042;15.498;2023-02-28T02:45:47;98014.56;;;-1.39;72.32
57442;BME280;43284;47.042;15.498;2023-02-28T02:48:18;98012.00;;;-1.39;71.43
57442;BME280;43284;47.042;15.498;2023-02-28T02:50:49;98011.06;;;-1.45;71.04
57442;BME280;43284;47.042;15.498;2023-02-28T02:53:18;98017.91;;;-1.45;70.44
57442;BME280;43284;47.042;15.498;2023-02-28T02:55:48;98023.00;;;-1.48;71.31
57442;BME280;43284;47.042;15.498;2023-02-28T02:58:24;98024.75;;;-1.46;71.65
57442;BME280;43284;47.042;15.498;2023-02-28T03:00:55;98021.31;;;-1.46;71.47
57442;BME280;43284;47.042;15.498;2023-02-28T03:03:23;98025.63;;;-1.43;71.49
57442;BME280;43284;47.042;15.498;2023-02-28T03:06:00;98027.34;;;-1.42;71.09
57442;BME280;43284;47.042;15.498;2023-02-28T03:08:28;98025.66;;;-1.42;70.76
57442;BME280;43284;47.042;15.498;2023-02-28T03:10:59;98023.94;;;-1.41;71.25
57442;BME280;43284;47.042;15.498;2023-02-28T03:24:07;98023.16;;;-1.36;72.52
57442;BME280;43284;47.042;15.498;2023-02-28T03:26:39;98014.53;;;-1.41;71.71
57442;BME280;43284;47.042;15.498;2023-02-28T03:31:49;98021.38;;;-1.41;71.39
57442;BME280;43284;47.042;15.498;2023-02-28T03:34:27;98027.41;;;-1.39;71.32
57442;BME280;43284;47.042;15.498;2023-02-28T03:36:59;98027.38;;;-1.41;71.04
57442;BME280;43284;47.042;15.498;2023-02-28T03:39:34;98028.22;;;-1.40;71.05
57442;BME280;43284;47.042;15.498;2023-02-28T03:42:05;98026.53;;;-1.40;71.10
57442;BME280;43284;47.042;15.498;2023-02-28T03:44:37;98027.34;;;-1.44;71.58
57442;BME280;43284;47.042;15.498;2023-02-28T03:47:16;98027.34;;;-1.44;72.07
57442;BME280;43284;47.042;15.498;2023-02-28T03:49:48;98023.91;;;-1.46;71.75
57442;BME280;43284;47.042;15.498;2023-02-28T03:52:16;98033.25;;;-1.47;72.59
57442;BME280;43284;47.042;15.498;2023-02-28T03:54:51;98033.25;;;-1.48;71.91
57442;BME280;43284;47.042;15.498;2023-02-28T04:00:06;98031.53;;;-1.51;71.24
57442;BME280;43284;47.042;15.498;2023-02-28T04:02:34;98035.81;;;-1.47;71.60
57442;BME280;43284;47.042;15.498;2023-02-28T04:05:00;98029.91;;;-1.44;71.99
57442;BME280;43284;47.042;15.498;2023-02-28T04:07:29;98033.38;;;-1.39;73.19
57442;BME280;43284;47.042;15.498;2023-02-28T04:09:56;98039.38;;;-1.37;73.57
57442;BME280;43284;47.042;15.498;2023-02-28T04:12:21;98037.69;;;-1.36;74.40
57442;BME280;43284;47.042;15.498;2023-02-28T04:14:49;98036.81;;;-1.37;73.41
57442;BME280;43284;47.042;15.498;2023-02-28T04:17:15;98039.38;;;-1.37;72.47
57442;BME280;43284;47.042;15.498;2023-02-28T04:19:41;98038.50;;;-1.39;72.35
57442;BME280;43284;47.042;15.498;2023-02-28T04:22:08;98042.78;;;-1.39;71.72
57442;BME280;43284;47.042;15.498;2023-02-28T04:24:35;98044.50;;;-1.37;71.45
57442;BME280;43284;47.042;15.498;2023-02-28T04:27:01;98045.44;;;-1.33;71.75
57442;BME280;43284;47.042;15.498;2023-02-28T04:29:29;98050.56;;;-1.32;71.56
57442;BME280;43284;47.042;15.498;2023-02-28T04:31:56;98053.16;;;-1.30;72.15
57442;BME280;43284;47.042;15.498;2023-02-28T04:34:26;98049.72;;;-1.31;72.01
57442;BME280;43284;47.042;15.498;2023-02-28T04:36:54;98052.28;;;-1.29;72.76
57442;BME280;43284;47.042;15.498;2023-02-28T04:39:23;98052.31;;;-1.28;72.30
57442;BME280;43284;47.042;15.498;2023-02-28T04:41:49;98051.47;;;-1.28;71.91
57442;BME280;43284;47.042;15.498;2023-02-28T04:44:16;98058.31;;;-1.27;71.93
57442;BME280;43284;47.042;15.498;2023-02-28T04:46:42;98056.53;;;-1.33;71.32
57442;BME280;43284;47.042;15.498;2023-02-28T04:49:09;98060.00;;;-1.31;72.40
57442;BME280;43284;47.042;15.498;2023-02-28T04:51:36;98059.16;;;-1.28;72.37
57442;BME280;43284;47.042;15.498;2023-02-28T04:54:02;98062.59;;;-1.28;72.30
57442;BME280;43284;47.042;15.498;2023-02-28T04:56:29;98055.75;;;-1.27;72.05
57442;BME280;43284;47.042;15.498;2023-02-28T04:58:54;98056.56;;;-1.30;71.65
57442;BME280;43284;47.042;15.498;2023-02-28T05:03:46;98058.25;;;-1.32;71.11
57442;BME280;43284;47.042;15.498;2023-02-28T05:06:13;98050.56;;;-1.32;71.17
57442;BME280;43284;47.042;15.498;2023-02-28T05:08:39;98045.44;;;-1.32;71.14
57442;BME280;43284;47.042;15.498;2023-02-28T05:11:20;98052.28;;;-1.31;70.87
57442;BME280;43284;47.042;15.498;2023-02-28T05:13:47;98052.28;;;-1.31;70.82
57442;BME280;43284;47.042;15.498;2023-02-28T05:16:13;98047.09;;;-1.34;71.75
57442;BME280;43284;47.042;15.498;2023-02-28T05:18:39;98045.38;;;-1.36;71.28
57442;BME280;43284;47.042;15.498;2023-02-28T05:21:05;98056.50;;;-1.34;71.22
57442;BME280;43284;47.042;15.498;2023-02-28T05:23:31;98048.78;;;-1.36;70.92
57442;BME280;43284;47.042;15.498;2023-02-28T05:25:57;98049.66;;;-1.34;70.83
57442;BME280;43284;47.042;15.498;2023-02-28T05:28:22;98047.16;;;-1.31;69.97
57442;BME280;43284;47.042;15.498;2023-02-28T05:30:48;98048.88;;;-1.31;70.17
57442;BME280;43284;47.042;15.498;2023-02-28T05:33:14;98054.84;;;-1.32;70.36
57442;BME280;43284;47.042;15.498;2023-02-28T05:35:40;98053.91;;;-1.36;70.37
57442;BME280;43284;47.042;15.498;2023-02-28T05:38:08;98057.38;;;-1.35;70.97
57442;BME280;43284;47.042;15.498;2023-02-28T05:40:34;98058.19;;;-1.36;70.99
57442;BME280;43284;47.042;15.498;2023-02-28T05:43:00;98068.50;;;-1.32;72.01
57442;BME280;43284;47.042;15.498;2023-02-28T05:45:25;98067.59;;;-1.37;72.04
57442;BME280;43284;47.042;15.498;2023-02-28T05:47:54;98071.00;;;-1.36;72.34
57442;BME280;43284;47.042;15.498;2023-02-28T05:50:20;98069.34;;;-1.34;72.87
57442;BME280;43284;47.042;15.498;2023-02-28T05:52:50;98065.94;;;-1.33;71.63
57442;BME280;43284;47.042;15.498;2023-02-28T05:55:16;98073.56;;;-1.36;71.30
57442;BME280;43284;47.042;15.498;2023-02-28T05:57:41;98074.44;;;-1.36;71.20
57442;BME280;43284;47.042;15.498;2023-02-28T06:00:08;98077.06;;;-1.33;71.50
57442;BME280;43284;47.042;15.498;2023-02-28T06:02:35;98087.28;;;-1.34;71.52
57442;BME280;43284;47.042;15.498;2023-02-28T06:05:00;98082.16;;;-1.34;72.04
57442;BME280;43284;47.042;15.498;2023-02-28T06:07:26;98084.78;;;-1.31;71.54
57442;BME280;43284;47.042;15.498;2023-02-28T06:09:51;98091.59;;;-1.32;71.45
57442;BME280;43284;47.042;15.498;2023-02-28T06:12:17;98086.47;;;-1.32;70.63
57442;BME280;43284;47.042;15.498;2023-02-28T06:14:43;98092.47;;;-1.31;70.19
57442;BME280;43284;47.042;15.498;2023-02-28T06:17:09;98091.63;;;-1.30;70.06
57442;BME280;43284;47.042;15.498;2023-02-28T06:19:37;98094.22;;;-1.27;70.18
57442;BME280;43284;47.042;15.498;2023-02-28T06:22:04;98100.22;;;-1.25;70.64
57442;BME280;43284;47.042;15.498;2023-02-28T06:24:30;98103.69;;;-1.23;70.13
57442;BME280;43284;47.042;15.498;2023-02-28T06:26:56;98111.41;;;-1.21;69.92
57442;BME280;43284;47.042;15.498;2023-02-28T06:29:24;98107.97;;;-1.22;69.80
57442;BME280;43284;47.042;15.498;2023-02-28T06:31:50;98112.28;;;-1.19;70.08
57442;BME280;43284;47.042;15.498;2023-02-28T06:34:16;98116.56;;;-1.18;70.58
57442;BME280;43284;47.042;15.498;2023-02-28T06:36:42;98119.16;;;-1.17;70.22
57442;BME280;43284;47.042;15.498;2023-02-28T06:39:09;98124.31;;;-1.15;70.57
57442;BME280;43284;47.042;15.498;2023-02-28T06:41:35;98126.81;;;-1.18;70.69
57442;BME280;43284;47.042;15.498;2023-02-28T06:44:15;98126.81;;;-1.20;69.32
57442;BME280;43284;47.042;15.498;2023-02-28T06:46:43;98129.38;;;-1.18;69.97
57442;BME280;43284;47.042;15.498;2023-02-28T06:49:09;98135.47;;;-1.13;70.99
57442;BME280;43284;47.042;15.498;2023-02-28T06:51:37;98142.31;;;-1.12;70.14
57442;BME280;43284;47.042;15.498;2023-02-28T06:54:04;98139.72;;;-1.12;69.63
57442;BME280;43284;47.042;15.498;2023-02-28T06:56:31;98141.41;;;-1.14;68.90
57442;BME280;43284;47.042;15.498;2023-02-28T06:58:56;98143.19;;;-1.10;70.28
57442;BME280;43284;47.042;15.498;2023-02-28T07:01:22;98138.91;;;-1.11;70.20
57442;BME280;43284;47.042;15.498;2023-02-28T07:03:49;98146.63;;;-1.08;69.34
57442;BME280;43284;47.042;15.498;2023-02-28T07:06:18;98140.69;;;-1.07;69.73
57442;BME280;43284;47.042;15.498;2023-02-28T07:08:44;98142.41;;;-1.05;69.85
57442;BME280;43284;47.042;15.498;2023-02-28T07:11:10;98139.88;;;-1.01;70.49
57442;BME280;43284;47.042;15.498;2023-02-28T07:13:36;98139.06;;;-1.00;69.62
57442;BME280;43284;47.042;15.498;2023-02-28T07:16:07;98139.94;;;-0.97;69.46
57442;BME280;43284;47.042;15.498;2023-02-28T07:18:34;98145.13;;;-0.94;69.83
57442;BME280;43284;47.042;15.498;2023-02-28T07:21:04;98143.44;;;-0.92;70.05
57442;BME280;43284;47.042;15.498;2023-02-28T07:23:31;98142.63;;;-0.89;70.06
57442;BME280;43284;47.042;15.498;2023-02-28T07:25:57;98144.38;;;-0.85;70.09
57442;BME280;43284;47.042;15.498;2023-02-28T07:28:23;98145.25;;;-0.83;69.80
57442;BME280;43284;47.042;15.498;2023-02-28T07:30:49;98143.56;;;-0.79;70.52
57442;BME280;43284;47.042;15.498;2023-02-28T07:33:15;98147.88;;;-0.78;70.13
57442;BME280;43284;47.042;15.498;2023-02-28T07:35:41;98144.50;;;-0.76;69.82
57442;BME280;43284;47.042;15.498;2023-02-28T07:38:07;98152.22;;;-0.73;69.91
57442;BME280;43284;47.042;15.498;2023-02-28T07:40:34;98147.09;;;-0.73;70.11
57442;BME280;43284;47.042;15.498;2023-02-28T07:43:01;98158.25;;;-0.69;70.24
57442;BME280;43284;47.042;15.498;2023-02-28T07:45:27;98157.44;;;-0.67;70.16
57442;BME280;43284;47.042;15.498;2023-02-28T07:47:57;98158.28;;;-0.68;69.31
57442;BME280;43284;47.042;15.498;2023-02-28T07:50:23;98160.84;;;-0.66;69.44
57442;BME280;43284;47.042;15.498;2023-02-28T07:52:49;98162.63;;;-0.62;69.93
57442;BME280;43284;47.042;15.498;2023-02-28T07:55:14;98153.22;;;-0.60;69.78
57442;BME280;43284;47.042;15.498;2023-02-28T07:57:41;98161.81;;;-0.58;68.93
57442;BME280;43284;47.042;15.498;2023-02-28T08:00:10;98169.53;;;-0.55;69.63
57442;BME280;43284;47.042;15.498;2023-02-28T08:02:37;98168.72;;;-0.51;70.01
57442;BME280;43284;47.042;15.498;2023-02-28T08:05:03;98166.16;;;-0.52;69.22
57442;BME280;43284;47.042;15.498;2023-02-28T08:07:29;98164.47;;;-0.52;68.69
57442;BME280;43284;47.042;15.498;2023-02-28T08:09:55;98168.78;;;-0.48;69.35
57442;BME280;43284;47.042;15.498;2023-02-28T08:12:20;98172.25;;;-0.46;68.67
57442;BME280;43284;47.042;15.498;2023-02-28T08:14:46;98169.69;;;-0.43;68.69
57442;BME280;43284;47.042;15.498;2023-02-28T08:17:12;98167.16;;;-0.38;68.83
57442;BME280;43284;47.042;15.498;2023-02-28T08:19:38;98169.78;;;-0.35;68.70
57442;BME280;43284;47.042;15.498;2023-02-28T08:22:03;98168.97;;;-0.29;68.68
57442;BME280;43284;47.042;15.498;2023-02-28T08:24:29;98163.88;;;-0.28;68.59
57442;BME280;43284;47.042;15.498;2023-02-28T08:26:56;98175.91;;;-0.24;68.80
57442;BME280;43284;47.042;15.498;2023-02-28T08:29:21;98175.97;;;-0.17;68.78
57442;BME280;43284;47.042;15.498;2023-02-28T08:31:47;98177.69;;;-0.15;68.95
57442;BME280;43284;47.042;15.498;2023-02-28T08:34:15;98172.59;;;-0.12;68.39
57442;BME280;43284;47.042;15.498;2023-02-28T08:36:41;98174.38;;;-0.06;68.14
57442;BME280;43284;47.042;15.498;2023-02-28T08:39:09;98179.56;;;-0.02;68.47
57442;BME280;43284;47.042;15.498;2023-02-28T08:41:34;98176.13;;;0.01;68.25
57442;BME280;43284;47.042;15.498;2023-02-28T08:44:00;98176.13;;;-0.01;67.17
57442;BME280;43284;47.042;15.498;2023-02-28T08:46:27;98174.44;;;0.03;67.46
57442;BME280;43284;47.042;15.498;2023-02-28T08:48:54;98177.09;;;0.09;68.50
57442;BME280;43284;47.042;15.498;2023-02-28T08:51:21;98177.06;;;0.11;68.20
57442;BME280;43284;47.042;15.498;2023-02-28T08:53:52;98176.28;;;0.13;67.61
57442;BME280;43284;47.042;15.498;2023-02-28T08:56:19;98179.69;;;0.14;67.66
57442;BME280;43284;47.042;15.498;2023-02-28T08:58:46;98182.25;;;0.14;67.55
57442;BME280;43284;47.042;15.498;2023-02-28T09:01:15;98179.72;;;0.18;67.55
57442;BME280;43284;47.042;15.498;2023-02-28T09:03:42;98181.47;;;0.21;66.68
57442;BME280;43284;47.042;15.498;2023-02-28T09:06:09;98181.41;;;0.15;65.95
57442;BME280;43284;47.042;15.498;2023-02-28T09:08:35;98180.56;;;0.17;66.61
57442;BME280;43284;47.042;15.498;2023-02-28T09:11:01;98172.06;;;0.23;67.33
57442;BME280;43284;47.042;15.498;2023-02-28T09:13:27;98179.81;;;0.28;67.17
57442;BME280;43284;47.042;15.498;2023-02-28T09:15:53;98174.72;;;0.31;66.83
57442;BME280;43284;47.042;15.498;2023-02-28T09:18:20;98181.59;;;0.33;66.96
57442;BME280;43284;47.042;15.498;2023-02-28T09:20:46;98176.44;;;0.36;66.34
57442;BME280;43284;47.042;15.498;2023-02-28T09:23:12;98179.91;;;0.41;66.72
57442;BME280;43284;47.042;15.498;2023-02-28T09:25:51;98187.59;;;0.35;66.08
57442;BME280;43284;47.042;15.498;2023-02-28T09:28:17;98185.94;;;0.44;66.93
57442;BME280;43284;47.042;15.498;2023-02-28T09:30:49;98184.22;;;0.46;66.93
57442;BME280;43284;47.042;15.498;2023-02-28T09:33:16;98186.00;;;0.50;66.75
57442;BME280;43284;47.042;15.498;2023-02-28T09:35:43;98182.59;;;0.54;66.82
57442;BME280;43284;47.042;15.498;2023-02-28T09:38:09;98185.19;;;0.55;67.05
57442;BME280;43284;47.042;15.498;2023-02-28T09:40:55;98187.69;;;0.46;65.55
57442;BME280;43284;47.042;15.498;2023-02-28T09:43:24;98192.84;;;0.49;65.47
57442;BME280;43284;47.042;15.498;2023-02-28T09:46:08;98185.22;;;0.57;65.28
57442;BME280;43284;47.042;15.498;2023-02-28T09:48:41;98180.00;;;0.49;64.76
57442;BME280;43284;47.042;15.498;2023-02-28T09:51:20;98183.38;;;0.45;65.17
57442;BME280;43284;47.042;15.498;2023-02-28T09:53:49;98186.06;;;0.59;65.38
57442;BME280;43284;47.042;15.498;2023-02-28T09:58:51;98182.72;;;0.74;64.97
57442;BME280;43284;47.042;15.498;2023-02-28T10:07:31;98175.13;;;0.88;65.51
57442;BME280;43284;47.042;15.498;2023-02-28T10:10:04;98176.00;;;0.90;65.29
57442;BME280;43284;47.042;15.498;2023-02-28T10:12:32;98168.25;;;0.87;64.39
57442;BME280;43284;47.042;15.498;2023-02-28T10:14:59;98173.38;;;0.84;64.84
57442;BME280;43284;47.042;15.498;2023-02-28T10:17:37;98169.13;;;0.93;64.29
57442;BME280;43284;47.042;15.498;2023-02-28T10:20:15;98174.31;;;0.98;65.18
57442;BME280;43284;47.042;15.498;2023-02-28T10:23:19;98165.72;;;0.93;64.63
57442;BME280;43284;47.042;15.498;2023-02-28T10:25:52;98172.66;;;1.11;66.07
57442;BME280;43284;47.042;15.498;2023-02-28T10:28:19;98170.13;;;1.15;63.89
57442;BME280;43284;47.042;15.498;2023-02-28T10:30:48;98172.66;;;1.06;64.46
57442;BME280;43284;47.042;15.498;2023-02-28T10:35:49;98172.69;;;1.14;64.18
57442;BME280;43284;47.042;15.498;2023-02-28T10:38:24;98170.97;;;1.10;64.57
57442;BME280;43284;47.042;15.498;2023-02-28T10:40:51;98159.88;;;1.28;64.21
57442;BME280;43284;47.042;15.498;2023-02-28T10:43:18;98163.19;;;1.07;63.16
57442;BME280;43284;47.042;15.498;2023-02-28T10:46:15;98156.44;;;1.30;64.03
57442;BME280;43284;47.042;15.498;2023-02-28T10:49:07;98156.50;;;1.41;62.89
57442;BME280;43284;47.042;15.498;2023-02-28T10:51:39;98153.09;;;1.50;63.37
57442;BME280;43284;47.042;15.498;2023-02-28T10:54:05;98150.56;;;1.62;63.19
57442;BME280;43284;47.042;15.498;2023-02-28T10:56:32;98149.69;;;1.63;62.57
57442;BME280;43284;47.042;15.498;2023-02-28T10:59:08;98152.31;;;1.69;62.67
57442;BME280;43284;47.042;15.498;2023-02-28T11:01:48;98149.69;;;1.61;61.31
57442;BME280;43284;47.042;15.498;2023-02-28T11:04:35;98146.28;;;1.76;60.82
57442;BME280;43284;47.042;15.498;2023-02-28T11:09:40;98142.88;;;1.76;60.17
57442;BME280;43284;47.042;15.498;2023-02-28T11:12:18;98139.47;;;1.86;61.42
57442;BME280;43284;47.042;15.498;2023-02-28T11:14:52;98134.31;;;2.00;61.89
57442;BME280;43284;47.042;15.498;2023-02-28T11:17:24;98130.00;;;2.14;61.70
57442;BME280;43284;47.042;15.498;2023-02-28T11:19:53;98126.59;;;2.17;59.92
57442;BME280;43284;47.042;15.498;2023-02-28T11:22:25;98127.44;;;2.31;60.43
57442;BME280;43284;47.042;15.498;2023-02-28T11:24:56;98123.16;;;2.39;59.68
57442;BME280;43284;47.042;15.498;2023-02-28T11:30:00;98106.81;;;2.02;60.07
57442;BME280;43284;47.042;15.498;2023-02-28T11:32:30;98115.38;;;1.78;60.86
57442;BME280;43284;47.042;15.498;2023-02-28T11:35:02;98105.94;;;1.92;61.45
57442;BME280;43284;47.042;15.498;2023-02-28T11:37:30;98101.66;;;2.05;61.06
57442;BME280;43284;47.042;15.498;2023-02-28T11:39:57;98105.94;;;2.31;62.27
57442;BME280;43284;47.042;15.498;2023-02-28T11:56:37;98094.75;;;2.55;60.29
57442;BME280;43284;47.042;15.498;2023-02-28T12:10:44;98076.63;;;2.68;59.91
57442;BME280;43284;47.042;15.498;2023-02-28T12:13:26;98070.59;;;2.86;59.91
57442;BME280;43284;47.042;15.498;2023-02-28T12:16:19;98077.44;;;3.00;60.14
57442;BME280;43284;47.042;15.498;2023-02-28T12:19:16;98074.78;;;3.06;59.60
57442;BME280;43284;47.042;15.498;2023-02-28T12:27:16;98071.47;;;2.70;60.30
57442;BME280;43284;47.042;15.498;2023-02-28T12:29:52;98069.72;;;2.81;60.62
57442;BME280;43284;47.042;15.498;2023-02-28T12:32:39;98068.03;;;2.73;61.75
57442;BME280;43284;47.042;15.498;2023-02-28T12:37:58;98065.38;;;3.02;60.45
57442;BME280;43284;47.042;15.498;2023-02-28T12:40:55;98064.47;;;3.09;62.03
57442;BME280;43284;47.042;15.498;2023-02-28T12:43:20;98063.56;;;3.19;61.59
57442;BME280;43284;47.042;15.498;2023-02-28T12:45:57;98058.53;;;2.81;61.53
57442;BME280;43284;47.042;15.498;2023-02-28T12:48:35;98057.63;;;2.93;61.94
57442;BME280;43284;47.042;15.498;2023-02-28T12:51:04;98050.75;;;2.90;61.20
57442;BME280;43284;47.042;15.498;2023-02-28T12:56:17;98044.59;;;3.20;60.51
57442;BME280;43284;47.042;15.498;2023-02-28T12:58:51;98039.34;;;3.34;61.11
57442;BME280;43284;47.042;15.498;2023-02-28T13:09:59;98039.41;;;3.28;60.30
57442;BME280;43284;47.042;15.498;2023-02-28T13:12:26;98038.53;;;3.29;59.78
57442;BME280;43284;47.042;15.498;2023-02-28T13:15:25;98030.63;;;3.55;60.09
57442;BME280;43284;47.042;15.498;2023-02-28T13:17:58;98027.94;;;3.70;60.28
57442;BME280;43284;47.042;15.498;2023-02-28T13:20:36;98027.94;;;3.69;58.25
57442;BME280;43284;47.042;15.498;2023-02-28T13:34:37;98012.13;;;4.09;58.25
57442;BME280;43284;47.042;15.498;2023-02-28T13:39:51;98014.94;;;3.78;58.15
57442;BME280;43284;47.042;15.498;2023-02-28T13:50:21;97994.66;;;4.28;57.46
57442;BME280;43284;47.042;15.498;2023-02-28T13:53:14;97997.88;;;4.53;57.04
57442;BME280;43284;47.042;15.498;2023-02-28T13:55:51;97998.81;;;4.44;56.27
57442;BME280;43284;47.042;15.498;2023-02-28T14:06:54;97987.06;;;4.14;55.72
57442;BME280;43284;47.042;15.498;2023-02-28T14:09:37;97986.94;;;4.25;58.22
57442;BME280;43284;47.042;15.498;2023-02-28T14:17:55;97978.34;;;4.23;55.97
57442;BME280;43284;47.042;15.498;2023-02-28T14:20:24;97979.38;;;4.05;56.84
57442;BME280;43284;47.042;15.498;2023-02-28T14:31:29;97962.41;;;4.60;54.63
57442;BME280;43284;47.042;15.498;2023-02-28T14:34:17;97959.44;;;4.18;55.66
57442;BME280;43284;47.042;15.498;2023-02-28T14:36:46;97963.44;;;4.46;55.41
57442;BME280;43284;47.042;15.498;2023-02-28T14:39:20;97955.78;;;4.36;55.33
57442;BME280;43284;47.042;15.498;2023-02-28T14:41:46;97961.13;;;4.17;56.37
57442;BME280;43284;47.042;15.498;2023-02-28T14:44:24;97964.69;;;4.07;56.33
57442;BME280;43284;47.042;15.498;2023-02-28T14:46:53;97962.13;;;4.07;56.50
57442;BME280;43284;47.042;15.498;2023-02-28T14:51:45;97962.72;;;4.30;55.14
57442;BME280;43284;47.042;15.498;2023-02-28T14:54:15;97962.06;;;4.08;56.38
57442;BME280;43284;47.042;15.498;2023-02-28T14:56:42;97962.94;;;4.10;56.47
57442;BME280;43284;47.042;15.498;2023-02-28T14:59:27;97968.03;;;4.18;56.32
57442;BME280;43284;47.042;15.498;2023-02-28T15:02:33;97963.81;;;4.08;56.34
57442;BME280;43284;47.042;15.498;2023-02-28T15:05:23;97969.84;;;4.08;55.94
57442;BME280;43284;47.042;15.498;2023-02-28T15:07:49;97971.63;;;4.03;56.53
57442;BME280;43284;47.042;15.498;2023-02-28T15:10:27;97962.97;;;4.04;56.40
57442;BME280;43284;47.042;15.498;2023-02-28T15:13:06;97963.88;;;4.03;56.74
57442;BME280;43284;47.042;15.498;2023-02-28T15:20:54;97974.56;;;3.63;56.06
57442;BME280;43284;47.042;15.498;2023-02-28T15:23:21;97975.50;;;3.55;57.67
57442;BME280;43284;47.042;15.498;2023-02-28T15:25:48;97972.06;;;3.49;58.18
57442;BME280;43284;47.042;15.498;2023-02-28T15:28:20;97978.13;;;3.45;58.24
57442;BME280;43284;47.042;15.498;2023-02-28T15:30:59;97974.66;;;3.51;58.50
57442;BME280;43284;47.042;15.498;2023-02-28T15:33:28;97976.31;;;3.60;58.33
57442;BME280;43284;47.042;15.498;2023-02-28T15:36:16;97985.84;;;3.55;57.59
57442;BME280;43284;47.042;15.498;2023-02-28T15:38:51;97980.66;;;3.51;58.03